Terminal Aerodrome Forecast
Issued by NWS Sterling, VA

Current Version | Previous Version | Text Only | Print | Product List | Glossary Off
Versions: 1 2 3 4 5 6 7 8 9 10 11 12 13 14 15 16 17 18 19 20 21 22 23 24 25 26 27 28 29 30 31 32

666
FTUS41 KLWX 022146 AAB
TAFIAD
TAF AMD
KIAD 022146Z 0222/0324 18007KT P6SM VCTS SCT040CB
      TEMPO 0222/0223 VRB20KT 3SM -TSRA
     FM030000 29005KT 5SM -SHRA VCTS OVC060CB
     FM030400 02005KT 5SM -SHRA VCTS OVC050CB
     FM030600 VRB04KT 2SM RA BR OVC008
     FM031200 33005KT 6SM -SHRA OVC008
     FM031800 36004KT P6SM BKN025=

USA.gov is the U.S. government's official web portal to all federal, state and local government web resources and services.